ADDS TAF Data INFO
IDs: Format: Raw Decoded Include METARs

Data at: 2235 UTC 23 May 2018

KECP 232149Z 2322/2418 24011KT P6SM VCTS BKN025CB
  FM232230 31011KT 3SM TSRA SCT015 OVC025CB
  FM240000 19005KT P6SM SCT015 BKN250
  FM240600 VRB03KT P6SM VCFG SCT004